Time;durP1;ratioP1;P1;durP2;ratioP2;P2;SDS_P1;SDS_P2;PMS_P1;PMS_P2;Temp;Humidity;BMP_temperature;BMP_pressure;BME280_temperature;BME280_humidity;BME280_pressure;Samples;Min_cycle;Max_cycle;Signal;HPM_P1;HPM_P2
2021/05/16 00:00:21;;;;;;;4.88;3.08;;;;;16.60;99865.00;;;;5030157;28;20207;-76
2021/05/16 00:05:35;;;;;;;3.00;2.20;;;;;16.70;99861.00;;;;5030450;28;20589;-76
2021/05/16 00:08:02;;;;;;;3.40;2.63;;;;;16.70;99861.00;;;;5020587;28;20209;-76
2021/05/16 00:10:47;;;;;;;4.53;3.05;;;;;16.80;99855.00;;;;5025125;28;20200;-75
2021/05/16 00:15:59;;;;;;;3.85;2.67;;;;;16.80;99859.00;;;;5028396;28;20681;-75
2021/05/16 00:18:26;;;;;;;5.05;3.30;;;;;16.90;99852.00;;;;5029674;28;20671;-75
2021/05/16 00:21:12;;;;;;;4.47;3.03;;;;;16.80;99854.00;;;;5030039;28;20593;-75
2021/05/16 00:26:43;;;;;;;3.15;2.58;;;;;16.90;99839.00;;;;5010691;28;20223;-76
2021/05/16 00:29:09;;;;;;;4.28;2.83;;;;;16.90;99846.00;;;;5025413;28;20587;-76
2021/05/16 00:31:36;;;;;;;8.27;3.40;;;;;17.00;99846.00;;;;5029348;28;20687;-76
2021/05/16 00:34:04;;;;;;;4.57;3.20;;;;;17.00;99850.00;;;;5021014;28;20201;-75
2021/05/16 00:36:31;;;;;;;5.40;3.15;;;;;17.00;99851.00;;;;5009984;28;20252;-76
2021/05/16 00:39:16;;;;;;;5.00;3.53;;;;;17.00;99851.00;;;;5009795;28;20213;-76
2021/05/16 00:42:02;;;;;;;5.13;3.28;;;;;17.00;99854.00;;;;5026404;28;20196;-75
2021/05/16 00:44:57;;;;;;;4.47;3.60;;;;;16.90;99845.00;;;;5027408;28;20207;-77
2021/05/16 00:53:19;;;;;;;5.60;3.47;;;;;17.00;99846.00;;;;5028548;28;20211;-76
2021/05/16 00:56:06;;;;;;;5.03;3.28;;;;;17.00;99852.00;;;;5030094;28;20258;-75
2021/05/16 00:58:33;;;;;;;6.05;3.67;;;;;17.10;99850.00;;;;5029496;28;20204;-76
2021/05/16 01:01:20;;;;;;;6.70;3.80;;;;;17.00;99844.00;;;;5017899;28;20205;-75
2021/05/16 01:03:47;;;;;;;7.25;3.03;;;;;17.10;99851.00;;;;5014522;28;20200;-75
2021/05/16 01:06:14;;;;;;;6.10;3.30;;;;;17.10;99852.00;;;;5028527;28;20204;-75
2021/05/16 01:08:41;;;;;;;5.05;3.25;;;;;17.10;99849.00;;;;5027531;28;20335;-76
2021/05/16 01:16:57;;;;;;;4.25;3.10;;;;;17.20;99841.00;;;;5026967;28;20349;-75
2021/05/16 01:19:42;;;;;;;5.93;2.92;;;;;17.10;99853.00;;;;5009130;28;20205;-75
2021/05/16 01:22:28;;;;;;;6.40;3.40;;;;;17.20;99844.00;;;;5009331;28;20259;-75
2021/05/16 01:30:44;;;;;;;8.30;3.30;;;;;17.10;99845.00;;;;5028684;28;20215;-76
2021/05/16 01:33:11;;;;;;;5.75;3.13;;;;;17.20;99854.00;;;;5025408;28;20196;-76
2021/05/16 01:35:38;;;;;;;5.70;3.13;;;;;17.20;99851.00;;;;5009106;28;20255;-76
2021/05/16 01:38:07;;;;;;;6.93;3.22;;;;;17.20;99849.00;;;;5018636;28;20228;-76
2021/05/16 01:40:34;;;;;;;5.97;3.33;;;;;17.20;99848.00;;;;5028387;28;20197;-75
2021/05/16 01:46:05;;;;;;;6.28;3.28;;;;;17.20;99851.00;;;;5009181;28;20290;-75
2021/05/16 01:51:36;;;;;;;6.65;2.50;;;;;17.10;99838.00;;;;5016119;28;20208;-75
2021/05/16 01:54:06;;;;;;;5.60;2.75;;;;;17.10;99849.00;;;;5017274;28;20204;-76
2021/05/16 01:59:56;;;;;;;6.45;2.60;;;;;17.10;99856.00;;;;5028374;28;20211;-76
2021/05/16 02:02:41;;;;;;;12.02;3.83;;;;;17.10;99845.00;;;;5028328;28;20262;-75
2021/05/16 02:05:10;;;;;;;5.68;2.78;;;;;17.10;99844.00;;;;5012346;28;20200;-76
2021/05/16 02:07:57;;;;;;;7.03;3.63;;;;;17.00;99845.00;;;;5016342;28;20679;-75
2021/05/16 02:10:43;;;;;;;5.43;2.88;;;;;17.10;99847.00;;;;5008330;28;20220;-75
2021/05/16 02:13:09;;;;;;;6.53;3.50;;;;;17.10;99850.00;;;;5009335;28;20208;-75
2021/05/16 02:18:40;;;;;;;9.45;4.10;;;;;17.10;99849.00;;;;5027626;28;20254;-75
2021/05/16 02:21:10;;;;;;;7.82;2.72;;;;;17.10;99853.00;;;;5028223;28;20274;-77
2021/05/16 02:23:57;;;;;;;7.57;3.45;;;;;17.10;99851.00;;;;5032016;28;20552;-76
2021/05/16 02:32:13;;;;;;;8.45;4.03;;;;;17.10;99855.00;;;;5031997;28;20196;-76
2021/05/16 02:34:58;;;;;;;6.55;3.58;;;;;17.10;99849.00;;;;5031869;28;20650;-76
2021/05/16 02:40:29;;;;;;;6.45;3.08;;;;;17.10;99861.00;;;;5022480;28;20231;-76
2021/05/16 02:45:41;;;;;;;6.05;3.08;;;;;17.10;99862.00;;;;5011420;28;20235;-76
2021/05/16 02:53:56;;;;;;;10.75;3.35;;;;;17.10;99863.00;;;;5031509;28;20211;-75
2021/05/16 02:56:23;;;;;;;8.90;3.35;;;;;17.10;99865.00;;;;5031069;28;20208;-75
2021/05/16 02:58:50;;;;;;;6.10;3.33;;;;;17.10;99861.00;;;;5031065;28;20204;-76
2021/05/16 03:01:17;;;;;;;8.38;3.80;;;;;17.10;99859.00;;;;5011631;28;20208;-76
2021/05/16 03:06:47;;;;;;;9.75;3.72;;;;;16.90;99856.00;;;;5011519;28;20211;-76
2021/05/16 03:09:14;;;;;;;7.45;3.45;;;;;17.00;99856.00;;;;5012982;28;20208;-76
2021/05/16 03:12:00;;;;;;;7.35;3.17;;;;;17.00;99853.00;;;;5031083;28;20204;-75
2021/05/16 03:14:46;;;;;;;10.13;3.63;;;;;17.00;99859.00;;;;5019193;28;20675;-76
2021/05/16 03:17:32;;;;;;;12.07;2.95;;;;;17.00;99854.00;;;;5011612;28;20235;-76
2021/05/16 03:23:03;;;;;;;3.65;2.58;;;;;17.00;99849.00;;;;5030602;28;20344;-76
2021/05/16 03:25:29;;;;;;;9.13;3.40;;;;;17.00;99852.00;;;;5030816;28;20212;-76
2021/05/16 03:27:56;;;;;;;11.10;3.63;;;;;17.00;99848.00;;;;5030155;28;20254;-75
2021/05/16 03:36:13;;;;;;;6.50;2.92;;;;;16.90;99851.00;;;;5030542;28;20266;-76
2021/05/16 03:44:09;;;;;;;6.55;2.83;;;;;16.90;99854.00;;;;5019520;28;20211;-75
2021/05/16 03:49:21;;;;;;;11.23;3.22;;;;;16.90;99852.00;;;;5029683;28;20271;-76
2021/05/16 03:51:48;;;;;;;8.73;3.67;;;;;16.90;99853.00;;;;5021376;28;20651;-76
2021/05/16 03:57:00;;;;;;;8.05;2.90;;;;;16.90;99851.00;;;;5030545;28;20230;-75
2021/05/16 03:59:45;;;;;;;6.68;3.22;;;;;16.90;99860.00;;;;5029107;28;20634;-75
2021/05/16 04:05:16;;;;;;;7.38;3.13;;;;;16.90;99862.00;;;;5029901;28;20195;-76
2021/05/16 04:10:28;;;;;;;6.88;3.63;;;;;16.90;99860.00;;;;5010250;28;20204;-76
2021/05/16 04:12:54;;;;;;;8.85;3.70;;;;;16.90;99854.00;;;;5010683;28;20205;-75
2021/05/16 04:21:10;;;;;;;8.48;3.10;;;;;16.90;99866.00;;;;5029864;28;20219;-76
2021/05/16 04:24:14;;;;;;;7.32;3.17;;;;;16.80;99857.00;;;;5029501;28;20211;-75
2021/05/16 04:26:41;;;;;;;7.57;3.50;;;;;17.00;99865.00;;;;5030482;28;20212;-76
2021/05/16 04:31:53;;;;;;;11.32;3.65;;;;;17.00;99865.00;;;;5009552;28;20586;-76
2021/05/16 04:34:20;;;;;;;9.63;3.95;;;;;17.00;99868.00;;;;5010117;28;20205;-76
2021/05/16 04:37:06;;;;;;;6.25;3.50;;;;;17.00;99865.00;;;;5009493;28;20228;-76
2021/05/16 04:40:10;;;;;;;9.15;3.20;;;;;16.90;99878.00;;;;5009867;28;20205;-75
2021/05/16 04:42:36;;;;;;;8.45;3.13;;;;;17.00;99872.00;;;;5017006;28;20204;-76
2021/05/16 04:45:04;;;;;;;10.25;3.35;;;;;17.10;99874.00;;;;5027405;28;20235;-76
2021/05/16 04:47:50;;;;;;;10.00;3.95;;;;;17.10;99879.00;;;;5029664;28;20204;-76
2021/05/16 04:50:37;;;;;;;8.57;3.67;;;;;17.10;99880.00;;;;5023755;28;20200;-77
2021/05/16 04:53:22;;;;;;;9.43;3.60;;;;;17.10;99881.00;;;;5029089;28;20200;-75
2021/05/16 04:56:08;;;;;;;9.65;4.18;;;;;17.00;99885.00;;;;5026576;28;20200;-76
2021/05/16 05:07:46;;;;;;;6.40;3.80;;;;;17.10;99879.00;;;;5027438;28;20203;-75
2021/05/16 05:10:13;;;;;;;7.43;3.92;;;;;17.10;99878.00;;;;5023335;28;20208;-76
2021/05/16 05:12:40;;;;;;;5.95;3.83;;;;;17.10;99884.00;;;;5010765;28;20605;-76
2021/05/16 05:15:26;;;;;;;10.02;3.90;;;;;17.20;99886.00;;;;5021333;28;20205;-76
2021/05/16 05:24:00;;;;;;;5.38;2.88;;;;;17.20;99890.00;;;;5014618;28;20259;-76
2021/05/16 05:26:27;;;;;;;11.05;3.80;;;;;17.20;99896.00;;;;5016927;28;20196;-76
2021/05/16 05:28:54;;;;;;;8.40;3.60;;;;;17.20;99888.00;;;;5018221;28;20213;-76
2021/05/16 05:31:20;;;;;;;9.93;4.00;;;;;17.20;99889.00;;;;5026946;28;20196;-75
2021/05/16 05:34:06;;;;;;;10.95;4.10;;;;;17.20;99881.00;;;;5022895;28;20200;-75
2021/05/16 05:39:18;;;;;;;7.72;3.17;;;;;17.20;99889.00;;;;5026297;28;20273;-76
2021/05/16 05:44:49;;;;;;;9.65;4.43;;;;;17.20;99892.00;;;;5026407;28;20688;-75
2021/05/16 05:47:16;;;;;;;9.20;3.30;;;;;17.30;99898.00;;;;5026911;28;20203;-76
2021/05/16 05:50:20;;;;;;;9.05;3.15;;;;;17.30;99889.00;;;;5020706;28;20215;-76
2021/05/16 05:52:47;;;;;;;7.93;3.05;;;;;17.40;99896.00;;;;5026257;28;20572;-76
2021/05/16 05:58:00;;;;;;;6.40;2.65;;;;;17.50;99900.00;;;;5021573;28;20232;-75
2021/05/16 06:00:45;;;;;;;8.63;3.42;;;;;17.40;99897.00;;;;5031054;28;20192;-76
2021/05/16 06:03:31;;;;;;;8.75;2.65;;;;;17.50;99898.00;;;;5031377;28;20667;-75
2021/05/16 06:05:58;;;;;;;7.60;2.65;;;;;17.50;99901.00;;;;5029842;28;20200;-75
2021/05/16 06:08:24;;;;;;;8.77;3.60;;;;;17.50;99896.00;;;;5016805;28;20292;-76
2021/05/16 06:11:28;;;;;;;13.45;3.75;;;;;17.40;99905.00;;;;5023631;28;20235;-75
2021/05/16 06:13:56;;;;;;;9.35;3.08;;;;;17.50;99901.00;;;;5028379;28;20200;-75
2021/05/16 06:19:45;;;;;;;5.20;2.53;;;;;17.50;99900.00;;;;5023245;28;20207;-75
2021/05/16 06:22:14;;;;;;;9.07;3.72;;;;;17.60;99901.00;;;;5029609;28;20282;-75
2021/05/16 06:24:41;;;;;;;8.90;3.30;;;;;17.70;99905.00;;;;5027589;28;20204;-77
2021/05/16 06:27:44;;;;;;;11.77;3.67;;;;;17.60;99905.00;;;;5028747;28;20200;-75
2021/05/16 06:30:14;;;;;;;8.98;3.38;;;;;17.80;99904.00;;;;5028122;28;20204;-77
2021/05/16 06:35:44;;;;;;;11.02;3.60;;;;;17.90;99921.00;;;;5030607;28;20580;-75
2021/05/16 06:38:11;;;;;;;8.25;3.42;;;;;17.90;99916.00;;;;5022571;28;20247;-77
2021/05/16 06:40:38;;;;;;;6.15;3.45;;;;;17.90;99919.00;;;;5025102;28;20193;-75
2021/05/16 06:43:24;;;;;;;9.48;4.20;;;;;18.00;99920.00;;;;5029197;28;20215;-75
2021/05/16 06:46:10;;;;;;;10.73;3.35;;;;;17.90;99918.00;;;;5022868;28;20254;-76
2021/05/16 06:48:56;;;;;;;6.70;2.85;;;;;17.90;99917.00;;;;5031068;28;20208;-76
2021/05/16 06:54:27;;;;;;;11.20;2.95;;;;;18.10;99923.00;;;;5029190;28;20247;-75
2021/05/16 06:57:13;;;;;;;5.45;3.28;;;;;18.10;99926.00;;;;5023761;28;20278;-76
2021/05/16 06:59:39;;;;;;;7.45;3.28;;;;;18.20;99932.00;;;;5024155;28;20239;-76
2021/05/16 07:04:53;;;;;;;7.13;3.58;;;;;18.30;99933.00;;;;5024113;28;20269;-76
2021/05/16 07:07:40;;;;;;;8.95;3.78;;;;;18.40;99934.00;;;;5025260;28;21263;-76
2021/05/16 07:10:07;;;;;;;9.48;4.50;;;;;18.40;99931.00;;;;5014113;28;20224;-76
2021/05/16 07:15:19;;;;;;;11.18;3.88;;;;;18.40;99927.00;;;;5012667;28;20622;-77
2021/05/16 07:18:05;;;;;;;8.95;3.60;;;;;18.40;99941.00;;;;5011530;28;20283;-76
2021/05/16 07:20:32;;;;;;;10.10;3.67;;;;;18.50;99932.00;;;;5013150;28;20207;-76
2021/05/16 07:23:18;;;;;;;8.70;3.20;;;;;18.60;99936.00;;;;5016157;28;20213;-76
2021/05/16 07:25:44;;;;;;;9.38;3.50;;;;;18.70;99934.00;;;;5015515;28;20297;-77
2021/05/16 07:33:41;;;;;;;7.88;3.25;;;;;18.80;99936.00;;;;5030724;28;20212;-77
2021/05/16 07:36:08;;;;;;;9.52;3.33;;;;;18.90;99933.00;;;;5026091;28;20248;-76
2021/05/16 07:38:35;;;;;;;5.65;3.10;;;;;18.90;99943.00;;;;5021031;28;20698;-75
2021/05/16 07:41:21;;;;;;;8.10;2.97;;;;;19.00;99942.00;;;;5028343;28;20242;-76
2021/05/16 07:44:06;;;;;;;8.40;2.70;;;;;19.00;99944.00;;;;5018948;28;20208;-77
2021/05/16 07:46:33;;;;;;;7.25;3.42;;;;;19.10;99944.00;;;;5012489;28;20228;-77
2021/05/16 07:49:21;;;;;;;9.25;3.17;;;;;19.10;99949.00;;;;5028330;28;20200;-76
2021/05/16 07:51:47;;;;;;;12.15;3.88;;;;;19.20;99948.00;;;;5022406;28;20302;-77
2021/05/16 07:54:14;;;;;;;10.02;3.55;;;;;19.20;99946.00;;;;5024098;28;20205;-76
2021/05/16 07:57:01;;;;;;;10.25;3.95;;;;;19.20;99947.00;;;;5023783;28;20204;-76
2021/05/16 07:59:46;;;;;;;6.28;4.35;;;;;19.10;99953.00;;;;5016851;28;20205;-76
2021/05/16 08:02:31;;;;;;;6.65;3.20;;;;;19.20;99947.00;;;;5014334;28;20204;-76
2021/05/16 08:08:22;;;;;;;6.78;3.75;;;;;19.20;99944.00;;;;5021966;28;20293;-77
2021/05/16 08:10:48;;;;;;;6.63;3.35;;;;;19.40;99939.00;;;;5020166;28;20188;-76
2021/05/16 08:13:16;;;;;;;8.85;3.85;;;;;19.50;99937.00;;;;5019990;28;20189;-77
2021/05/16 08:19:05;;;;;;;8.88;3.92;;;;;19.60;99948.00;;;;5020541;28;20226;-76
2021/05/16 08:24:17;;;;;;;9.38;3.78;;;;;19.70;99935.00;;;;5029364;28;20203;-76
2021/05/16 08:27:02;;;;;;;9.23;4.00;;;;;19.70;99939.00;;;;5021491;28;20201;-76
2021/05/16 08:30:06;;;;;;;8.77;3.63;;;;;19.70;99949.00;;;;5027764;28;20200;-77
2021/05/16 08:32:33;;;;;;;8.63;3.72;;;;;19.80;99940.00;;;;5021354;28;20687;-76
2021/05/16 08:35:38;;;;;;;8.30;3.78;;;;;19.80;99938.00;;;;5010129;28;20240;-77
2021/05/16 08:38:05;;;;;;;9.75;3.50;;;;;20.00;99941.00;;;;5028115;28;20234;-76
2021/05/16 08:40:51;;;;;;;10.63;3.97;;;;;20.10;99944.00;;;;5020063;28;20204;-78
2021/05/16 08:43:17;;;;;;;7.10;3.08;;;;;20.20;99947.00;;;;5009270;28;20582;-81
2021/05/16 08:46:05;;;;;;;12.23;4.00;;;;;20.20;99940.00;;;;5020282;28;20329;-83
2021/05/16 08:51:35;;;;;;;9.13;2.83;;;;;20.20;99945.00;;;;5024016;28;20240;-82
2021/05/16 08:54:22;;;;;;;7.05;2.90;;;;;20.20;99942.00;;;;5016804;28;20208;-80
2021/05/16 08:57:08;;;;;;;7.40;3.53;;;;;20.40;99944.00;;;;5015276;28;20231;-80
2021/05/16 08:59:53;;;;;;;5.80;2.70;;;;;20.60;99941.00;;;;5016900;28;20336;-83
2021/05/16 09:02:20;;;;;;;8.05;2.85;;;;;20.70;99934.00;;;;5008803;28;20212;-81
2021/05/16 09:04:47;;;;;;;8.20;3.15;;;;;20.90;99937.00;;;;5020420;28;20204;-84
2021/05/16 09:07:13;;;;;;;9.45;2.97;;;;;21.00;99941.00;;;;5021469;28;20196;-85
2021/05/16 09:09:41;;;;;;;9.13;3.17;;;;;21.20;99945.00;;;;5013017;28;20205;-84
2021/05/16 09:12:10;;;;;;;9.38;3.80;;;;;21.30;99938.00;;;;5020328;28;20200;-82
2021/05/16 09:14:44;;;;;;;9.00;2.90;;;;;21.40;99948.00;;;;5022209;28;20286;-83
2021/05/16 09:17:30;;;;;;;5.22;2.47;;;;;21.40;99954.00;;;;5019026;28;20233;-77
2021/05/16 09:23:00;;;;;;;8.25;1.98;;;;;21.40;99955.00;;;;5009152;28;20351;-77
2021/05/16 09:28:32;;;;;;;6.15;1.98;;;;;21.10;99960.00;;;;5009140;28;20215;-77
2021/05/16 09:36:49;;;;;;;3.88;1.20;;;;;20.90;99956.00;;;;5008949;28;20255;-77
2021/05/16 09:39:37;;;;;;;5.97;2.15;;;;;20.80;99965.00;;;;5008786;28;20196;-77
2021/05/16 09:42:06;;;;;;;3.80;1.65;;;;;20.80;99950.00;;;;5019655;28;20204;-85
2021/05/16 09:44:54;;;;;;;3.42;1.23;;;;;20.70;99951.00;;;;5012065;28;20209;-81
2021/05/16 09:53:16;;;;;;;7.68;1.80;;;;;20.90;99950.00;;;;5014330;28;20868;-79
2021/05/16 09:58:29;;;;;;;5.55;2.28;;;;;21.00;99946.00;;;;5012412;28;20262;-81
2021/05/16 10:00:55;;;;;;;5.93;1.77;;;;;21.00;99936.00;;;;5018259;28;20574;-81
2021/05/16 10:03:41;;;;;;;4.63;2.03;;;;;21.00;99933.00;;;;5018957;28;20223;-81
2021/05/16 10:06:08;;;;;;;4.03;1.75;;;;;21.10;99933.00;;;;5025285;28;20266;-79
2021/05/16 10:11:22;;;;;;;5.43;1.50;;;;;21.20;99937.00;;;;5014119;28;20704;-80
2021/05/16 10:14:14;;;;;;;3.95;2.00;;;;;21.20;99947.00;;;;5010215;28;20276;-80
2021/05/16 10:19:33;;;;;;;4.65;1.67;;;;;21.50;99933.00;;;;5015541;28;20280;-79
2021/05/16 10:22:18;;;;;;;6.35;1.92;;;;;21.60;99927.00;;;;5018013;28;20718;-79
2021/05/16 10:25:04;;;;;;;10.18;2.05;;;;;21.70;99931.00;;;;5013722;28;20211;-80
2021/05/16 10:30:27;;;;;;;6.82;1.48;;;;;21.80;99925.00;;;;5015578;28;20215;-80
2021/05/16 10:35:58;;;;;;;5.07;1.52;;;;;21.70;99935.00;;;;5008639;28;20208;-79
2021/05/16 10:38:45;;;;;;;4.18;1.20;;;;;21.70;99944.00;;;;5027029;28;20231;-81
2021/05/16 10:41:16;;;;;;;4.97;1.17;;;;;21.70;99941.00;;;;5018460;28;20225;-77
2021/05/16 10:50:49;;;;;;;3.63;1.08;;;;;21.30;99946.00;;;;5001090;28;20691;-75
2021/05/16 10:56:41;;;;;;;3.90;1.10;;;;;21.30;99932.00;;;;4993642;28;20240;-75
2021/05/16 10:59:36;;;;;;;4.07;1.40;;;;;21.30;99940.00;;;;5008869;28;20220;-75
2021/05/16 11:02:40;;;;;;;2.17;0.85;;;;;21.30;99941.00;;;;4998557;28;20205;-76
2021/05/16 11:05:46;;;;;;;1.88;0.73;;;;;21.40;99935.00;;;;4996491;28;20201;-77
2021/05/16 11:09:11;;;;;;;4.55;1.20;;;;;21.40;99935.00;;;;4992871;28;20197;-79
2021/05/16 11:11:57;;;;;;;1.52;0.80;;;;;21.50;99937.00;;;;4995222;28;20228;-79
2021/05/16 11:14:43;;;;;;;2.65;1.08;;;;;21.60;99935.00;;;;4991093;28;20614;-79
2021/05/16 11:17:16;;;;;;;3.05;1.05;;;;;21.50;99929.00;;;;4998778;28;20209;-78
2021/05/16 11:22:49;;;;;;;3.28;0.95;;;;;21.50;99917.00;;;;4991006;28;20228;-77
2021/05/16 11:25:35;;;;;;;2.75;1.13;;;;;21.20;99918.00;;;;4991570;28;20194;-77
2021/05/16 11:31:08;;;;;;;2.88;0.90;;;;;21.20;99920.00;;;;4992110;28;20733;-76
2021/05/16 11:40:01;;;;;;;2.90;1.02;;;;;21.00;99929.00;;;;4995007;28;20242;-76
2021/05/16 11:42:34;;;;;;;3.65;0.98;;;;;21.10;99913.00;;;;5010530;28;20192;-76
2021/05/16 11:45:01;;;;;;;3.28;1.50;;;;;21.20;99909.00;;;;5009326;28;20216;-76
2021/05/16 11:47:48;;;;;;;3.33;1.25;;;;;21.20;99913.00;;;;5018078;28;20289;-76
2021/05/16 11:50:15;;;;;;;5.25;1.33;;;;;21.40;99906.00;;;;5029872;28;20200;-76
2021/05/16 11:55:46;;;;;;;3.85;1.17;;;;;21.60;99904.00;;;;5013584;28;20572;-78
2021/05/16 11:58:32;;;;;;;3.60;1.33;;;;;21.60;99913.00;;;;5018565;28;20231;-77
2021/05/16 12:00:59;;;;;;;4.07;1.42;;;;;21.80;99913.00;;;;5029703;28;20204;-76
2021/05/16 12:04:04;;;;;;;4.13;1.13;;;;;21.90;99912.00;;;;5028368;28;20306;-76
2021/05/16 12:06:51;;;;;;;5.95;1.48;;;;;22.10;99912.00;;;;5029531;28;20262;-75
2021/05/16 12:15:20;;;;;;;4.32;1.70;;;;;22.40;99893.00;;;;5011249;28;20208;-80
2021/05/16 12:18:05;;;;;;;12.00;3.88;;;;;22.60;99894.00;;;;5010310;28;20239;-80
2021/05/16 12:20:40;;;;;;;3.92;1.38;;;;;22.70;99903.00;;;;5016769;28;20675;-80
2021/05/16 12:23:07;;;;;;;4.55;1.15;;;;;22.80;99900.00;;;;5024122;28;20777;-80
2021/05/16 12:25:53;;;;;;;3.08;1.17;;;;;22.70;99903.00;;;;5009570;28;20197;-80
2021/05/16 12:28:38;;;;;;;4.68;0.82;;;;;22.60;99902.00;;;;5010105;28;20558;-79
2021/05/16 12:34:11;;;;;;;1.33;0.63;;;;;22.50;99914.00;;;;5010168;28;20207;-79
2021/05/16 12:36:48;;;;;;;4.25;0.95;;;;;22.30;99908.00;;;;5022832;28;20209;-80
2021/05/16 12:39:30;;;;;;;3.60;0.95;;;;;22.30;99919.00;;;;5010078;28;20220;-79
2021/05/16 12:45:00;;;;;;;2.63;0.80;;;;;22.00;99942.00;;;;5009969;28;20216;-81
2021/05/16 12:47:28;;;;;;;2.90;0.80;;;;;21.80;99938.00;;;;5009553;28;20208;-76
2021/05/16 12:53:25;;;;;;;1.63;0.52;;;;;21.30;99941.00;;;;5011263;28;20292;-75
2021/05/16 12:58:41;;;;;;;1.73;0.47;;;;;21.10;99947.00;;;;5029594;28;20234;-75
2021/05/16 13:01:08;;;;;;;1.67;0.68;;;;;20.90;99940.00;;;;5028905;28;20281;-75
2021/05/16 13:03:36;;;;;;;1.88;0.45;;;;;20.80;99943.00;;;;5009731;28;20220;-75
2021/05/16 13:06:13;;;;;;;0.88;0.43;;;;;20.70;99938.00;;;;5020950;28;20231;-75
2021/05/16 13:08:59;;;;;;;0.60;0.28;;;;;20.60;99941.00;;;;5028367;28;20252;-75
2021/05/16 13:11:45;;;;;;;1.75;0.40;;;;;20.40;99938.00;;;;5021209;28;20196;-74
2021/05/16 13:14:49;;;;;;;1.65;0.32;;;;;20.40;99933.00;;;;5017559;28;20246;-76
2021/05/16 13:17:35;;;;;;;0.47;0.20;;;;;20.60;99917.00;;;;5008774;28;20196;-75
2021/05/16 13:20:22;;;;;;;0.22;0.15;;;;;20.60;99917.00;;;;5017407;28;20207;-75
2021/05/16 13:25:46;;;;;;;1.25;0.35;;;;;20.90;99912.00;;;;5015001;28;20199;-77
2021/05/16 13:28:31;;;;;;;0.77;0.30;;;;;21.10;99909.00;;;;5017122;28;20193;-76
2021/05/16 13:36:51;;;;;;;1.42;0.35;;;;;21.40;99898.00;;;;5018103;28;20219;-80
2021/05/16 13:42:04;;;;;;;0.22;0.20;;;;;22.10;99896.00;;;;5023351;28;20207;-81
2021/05/16 13:44:31;;;;;;;2.30;0.40;;;;;22.30;99897.00;;;;5016591;28;20697;-78
2021/05/16 13:46:58;;;;;;;0.90;0.40;;;;;22.40;99895.00;;;;5015353;28;20274;-79
2021/05/16 13:49:26;;;;;;;0.75;0.30;;;;;22.50;99893.00;;;;5014306;28;20686;-78
2021/05/16 13:52:12;;;;;;;1.40;0.30;;;;;22.60;99898.00;;;;5023781;28;20202;-79
2021/05/16 13:58:02;;;;;;;1.38;0.50;;;;;24.00;99893.00;;;;5020240;28;20220;-78
2021/05/16 14:00:49;;;;;;;0.55;0.30;;;;;24.70;99892.00;;;;5026784;28;20258;-79
2021/05/16 14:06:19;;;;;;;1.58;0.43;;;;;26.00;99895.00;;;;5008134;28;20340;-78
2021/05/16 14:09:06;;;;;;;7.53;0.50;;;;;26.00;99890.00;;;;5013588;28;20196;-78
2021/05/16 14:11:33;;;;;;;0.93;0.57;;;;;26.00;99890.00;;;;5021865;28;20678;-79
2021/05/16 14:14:00;;;;;;;1.88;0.57;;;;;25.90;99893.00;;;;5025352;28;20208;-79
2021/05/16 14:16:27;;;;;;;2.90;1.00;;;;;25.80;99883.00;;;;5018162;28;20291;-79
2021/05/16 14:18:54;;;;;;;1.55;0.80;;;;;25.70;99885.00;;;;5012307;28;20263;-79
2021/05/16 14:21:21;;;;;;;1.50;0.80;;;;;25.60;99885.00;;;;5019169;28;20205;-79
2021/05/16 14:24:08;;;;;;;1.75;0.65;;;;;25.60;99880.00;;;;5012746;28;20205;-79
2021/05/16 14:26:34;;;;;;;0.75;0.50;;;;;25.90;99887.00;;;;5012444;28;20204;-79
2021/05/16 14:29:01;;;;;;;0.88;0.68;;;;;25.90;99878.00;;;;5014454;28;20223;-79
2021/05/16 14:31:46;;;;;;;1.20;0.73;;;;;26.10;99873.00;;;;5011917;28;20197;-79
2021/05/16 14:34:13;;;;;;;1.20;0.50;;;;;26.50;99882.00;;;;5012553;28;20722;-79
2021/05/16 14:36:40;;;;;;;1.23;0.60;;;;;26.70;99882.00;;;;5015415;28;20212;-79
2021/05/16 14:39:08;;;;;;;3.95;0.68;;;;;26.90;99869.00;;;;5011870;28;20632;-79
2021/05/16 14:44:37;;;;;;;2.60;0.63;;;;;27.00;99884.00;;;;5011479;28;20236;-79
2021/05/16 14:47:04;;;;;;;1.27;0.60;;;;;26.90;99881.00;;;;5011926;28;20209;-79
2021/05/16 14:49:49;;;;;;;1.77;0.77;;;;;26.70;99877.00;;;;5025741;28;20212;-78
2021/05/16 14:52:17;;;;;;;2.35;0.45;;;;;26.70;99877.00;;;;5019668;28;20203;-78
2021/05/16 14:54:45;;;;;;;0.82;0.35;;;;;26.50;99883.00;;;;5029263;28;20212;-79
2021/05/16 14:57:30;;;;;;;1.25;0.40;;;;;26.40;99886.00;;;;5029438;28;20196;-80
2021/05/16 15:00:16;;;;;;;0.90;0.50;;;;;26.00;99870.00;;;;5031312;28;20200;-79
2021/05/16 15:03:01;;;;;;;2.03;0.60;;;;;25.80;99875.00;;;;5031225;28;20643;-80
2021/05/16 15:05:47;;;;;;;2.97;0.50;;;;;25.70;99869.00;;;;5020946;28;20667;-79
2021/05/16 15:11:18;;;;;;;0.88;0.43;;;;;25.20;99877.00;;;;5020423;28;20230;-80
2021/05/16 15:13:45;;;;;;;1.05;0.63;;;;;25.00;99872.00;;;;5022582;28;20207;-81
2021/05/16 15:16:12;;;;;;;1.65;0.77;;;;;24.70;99870.00;;;;5030063;28;20249;-80
2021/05/16 15:18:39;;;;;;;2.10;0.88;;;;;24.50;99875.00;;;;5026828;28;20230;-81
2021/05/16 15:21:08;;;;;;;2.17;1.10;;;;;24.20;99869.00;;;;5018038;28;20196;-82
2021/05/16 15:23:35;;;;;;;1.45;0.80;;;;;24.10;99876.00;;;;5022317;28;20266;-81
2021/05/16 15:26:02;;;;;;;2.15;0.95;;;;;23.90;99863.00;;;;5023867;28;20209;-81
2021/05/16 15:28:48;;;;;;;1.83;0.88;;;;;23.70;99855.00;;;;5018143;28;20205;-83
2021/05/16 15:31:15;;;;;;;2.33;1.00;;;;;23.50;99856.00;;;;5016310;28;20193;-82
2021/05/16 15:33:42;;;;;;;4.70;1.10;;;;;23.40;99863.00;;;;5018365;28;20200;-84
2021/05/16 15:36:27;;;;;;;3.53;1.00;;;;;23.10;99854.00;;;;5015677;28;20204;-81
2021/05/16 15:38:54;;;;;;;1.33;0.65;;;;;23.10;99853.00;;;;5015892;28;20228;-82
2021/05/16 15:47:10;;;;;;;1.42;0.82;;;;;23.20;99843.00;;;;5029112;28;20647;-83
2021/05/16 15:49:55;;;;;;;1.77;0.90;;;;;23.30;99843.00;;;;5027206;28;20201;-84
2021/05/16 15:53:04;;;;;;;0.90;0.80;;;;;23.10;99849.00;;;;5020190;28;20652;-83
2021/05/16 15:55:31;;;;;;;1.30;0.85;;;;;23.20;99847.00;;;;5022806;28;20196;-84
2021/05/16 15:57:59;;;;;;;1.35;1.00;;;;;23.20;99839.00;;;;5021119;28;20224;-83
2021/05/16 16:03:29;;;;;;;0.93;0.65;;;;;23.30;99835.00;;;;5029649;28;20246;-82
2021/05/16 16:05:56;;;;;;;1.60;0.95;;;;;23.30;99837.00;;;;5024099;28;20203;-84
2021/05/16 16:08:42;;;;;;;1.02;0.85;;;;;23.30;99841.00;;;;5025856;28;20231;-82
2021/05/16 16:11:09;;;;;;;2.92;0.90;;;;;23.30;99836.00;;;;5010041;28;20217;-85
2021/05/16 16:13:55;;;;;;;1.30;1.00;;;;;23.20;99839.00;;;;5025182;28;20304;-84
2021/05/16 16:16:23;;;;;;;2.25;0.95;;;;;23.30;99841.00;;;;5028678;28;20675;-85
2021/05/16 16:18:50;;;;;;;1.45;0.85;;;;;23.30;99833.00;;;;5026789;28;20319;-84
2021/05/16 16:21:17;;;;;;;2.85;1.00;;;;;23.30;99834.00;;;;5009674;28;20680;-83
2021/05/16 16:24:02;;;;;;;2.40;1.00;;;;;23.20;99836.00;;;;5026537;28;20702;-86
2021/05/16 16:26:30;;;;;;;2.10;0.93;;;;;23.20;99833.00;;;;5028252;28;20196;-86
2021/05/16 16:28:59;;;;;;;1.88;0.80;;;;;23.10;99834.00;;;;5030199;28;20216;-85
2021/05/16 16:37:16;;;;;;;2.67;1.00;;;;;22.90;99834.00;;;;5009882;28;20244;-81
2021/05/16 16:39:43;;;;;;;2.80;1.00;;;;;22.80;99832.00;;;;5014516;28;20231;-80
2021/05/16 16:48:00;;;;;;;1.50;0.90;;;;;22.60;99829.00;;;;5020598;28;20274;-83
2021/05/16 16:54:08;;;;;;;1.02;0.68;;;;;22.40;99817.00;;;;5016596;28;20214;-83
2021/05/16 16:57:12;;;;;;;1.73;0.85;;;;;22.50;99818.00;;;;5017829;28;20204;-82
2021/05/16 16:59:38;;;;;;;1.40;0.75;;;;;22.60;99823.00;;;;5024105;28;20219;-84
2021/05/16 17:02:06;;;;;;;2.13;1.05;;;;;22.60;99826.00;;;;5027245;28;20189;-83
2021/05/16 17:10:40;;;;;;;2.70;1.25;;;;;22.40;99828.00;;;;5015370;28;20307;-86
2021/05/16 17:13:07;;;;;;;2.30;1.10;;;;;22.50;99822.00;;;;5016560;28;20207;-83
2021/05/16 17:15:34;;;;;;;2.38;1.00;;;;;22.40;99825.00;;;;5021567;28;20211;-84
2021/05/16 17:18:21;;;;;;;2.00;1.25;;;;;22.30;99823.00;;;;5008724;28;20221;-83
2021/05/16 17:21:06;;;;;;;1.63;1.10;;;;;22.10;99823.00;;;;5009251;28;20208;-83
2021/05/16 17:23:52;;;;;;;2.63;1.42;;;;;22.00;99827.00;;;;5008799;28;20250;-82
2021/05/16 17:26:18;;;;;;;1.70;1.20;;;;;22.10;99822.00;;;;5020571;28;20200;-82
2021/05/16 17:29:04;;;;;;;1.75;0.90;;;;;22.10;99819.00;;;;5028793;28;20211;-82
2021/05/16 17:31:31;;;;;;;1.33;0.90;;;;;22.10;99819.00;;;;5029045;28;20200;-83
2021/05/16 17:34:35;;;;;;;3.63;1.20;;;;;22.00;99822.00;;;;5028204;28;20746;-78